createdAt,value
2018-06-03T00:02:18.723Z,96.28
2018-06-03T00:04:46.988Z,94.46
2018-06-03T00:07:15.248Z,94.68
2018-06-03T00:09:45.549Z,94.93
2018-06-03T00:12:13.780Z,95.61
2018-06-03T00:14:42.046Z,96.06
2018-06-03T00:17:10.294Z,96.42
2018-06-03T00:19:38.564Z,96.19
2018-06-03T00:22:06.831Z,96.08
2018-06-03T00:24:35.117Z,96.13
2018-06-03T00:27:03.367Z,96.33
2018-06-03T00:29:31.624Z,96.46
2018-06-03T00:31:59.922Z,96.53
2018-06-03T00:34:28.233Z,96.54
2018-06-03T00:36:56.491Z,96.15
2018-06-03T00:39:24.769Z,96.37
2018-06-03T00:41:53.019Z,96.38
2018-06-03T00:44:22.052Z,96.35
2018-06-03T00:46:50.410Z,96.20
2018-06-03T00:49:18.685Z,96.27
2018-06-03T00:51:47.699Z,96.57
2018-06-03T00:54:15.970Z,96.29
2018-06-03T00:57:02.724Z,96.45
2018-06-03T00:59:30.996Z,96.19
2018-06-03T01:01:59.244Z,96.48
2018-06-03T01:04:27.513Z,96.20
2018-06-03T01:06:57.455Z,96.02
2018-06-03T01:09:25.706Z,95.75
2018-06-03T01:11:54.735Z,95.86
2018-06-03T01:14:22.984Z,93.81
2018-06-03T01:16:52.006Z,93.73
2018-06-03T01:19:20.271Z,94.89
2018-06-03T01:21:48.531Z,95.37
2018-06-03T01:24:17.560Z,95.80
2018-06-03T01:26:45.922Z,95.82
2018-06-03T01:29:14.953Z,96.00
2018-06-03T01:31:43.221Z,95.89
2018-06-03T01:34:11.477Z,96.39
2018-06-03T01:36:40.534Z,96.45
2018-06-03T01:39:08.763Z,96.20
2018-06-03T01:41:37.036Z,96.48
2018-06-03T01:44:06.080Z,96.24
2018-06-03T01:46:34.347Z,96.43
2018-06-03T01:49:02.607Z,96.53
2018-06-03T01:51:31.724Z,96.71
2018-06-03T01:53:59.989Z,96.46
2018-06-03T01:56:28.275Z,96.52
2018-06-03T01:58:56.537Z,96.51
2018-06-03T02:01:25.566Z,96.46
2018-06-03T02:03:53.823Z,95.97
2018-06-03T02:06:22.858Z,96.15
2018-06-03T02:08:51.107Z,96.26
2018-06-03T02:11:19.373Z,96.11
2018-06-03T02:13:48.404Z,95.98
2018-06-03T02:16:16.660Z,96.39
2018-06-03T02:18:46.155Z,96.12
2018-06-03T02:21:15.190Z,95.79
2018-06-03T02:23:43.450Z,96.13
2018-06-03T02:26:12.466Z,96.11
2018-06-03T02:28:40.754Z,96.30
2018-06-03T02:31:09.004Z,96.53
2018-06-03T02:33:38.034Z,96.35
2018-06-03T02:36:06.295Z,96.43
2018-06-03T02:38:34.551Z,96.22
2018-06-03T02:41:03.579Z,96.43
2018-06-03T02:43:31.832Z,96.73
2018-06-03T02:46:00.864Z,96.79
2018-06-03T02:48:29.891Z,96.82
2018-06-03T02:50:58.160Z,96.47
2018-06-03T02:53:26.416Z,96.35
2018-06-03T02:55:54.683Z,96.00
2018-06-03T02:58:22.951Z,96.18
2018-06-03T03:00:51.983Z,96.19
2018-06-03T03:03:20.237Z,96.65
2018-06-03T03:05:49.271Z,96.31
2018-06-03T03:08:17.619Z,96.27
2018-06-03T03:10:47.151Z,96.28
2018-06-03T03:13:15.411Z,96.44
2018-06-03T03:15:43.672Z,96.49
2018-06-03T03:18:12.693Z,96.74
2018-06-03T03:20:40.963Z,96.31
2018-06-03T03:23:09.238Z,96.33
2018-06-03T03:25:38.260Z,96.17
2018-06-03T03:28:06.523Z,96.12
2018-06-03T03:30:35.541Z,96.10
2018-06-03T03:33:03.907Z,95.87
2018-06-03T03:35:32.704Z,95.70
2018-06-03T03:38:00.979Z,95.46
2018-06-03T03:40:30.004Z,95.07
2018-06-03T03:42:58.276Z,94.31
2018-06-03T03:45:26.523Z,94.59
2018-06-03T03:47:55.558Z,94.21
2018-06-03T03:50:23.815Z,93.45
2018-06-03T03:52:52.855Z,94.04
2018-06-03T03:55:21.113Z,93.90
2018-06-03T03:57:49.583Z,94.26
2018-06-03T04:00:17.837Z,94.92
2018-06-03T04:02:46.087Z,94.21
2018-06-03T04:05:14.343Z,93.88
2018-06-03T04:07:42.603Z,93.90
2018-06-03T04:10:11.618Z,93.74
2018-06-03T04:12:41.900Z,93.31
2018-06-03T04:15:10.150Z,93.21
2018-06-03T04:18:27.703Z,93.62
2018-06-03T04:20:56.911Z,92.89
2018-06-03T04:23:26.141Z,92.33
2018-06-03T04:25:55.362Z,92.62
2018-06-03T04:28:24.654Z,92.90
2018-06-03T04:30:53.862Z,93.22
2018-06-03T04:33:23.092Z,93.29
2018-06-03T04:35:52.315Z,92.67
2018-06-03T04:38:21.589Z,93.12
2018-06-03T04:40:50.783Z,92.30
2018-06-03T04:43:20.006Z,93.03
2018-06-03T04:45:49.224Z,92.37
2018-06-03T04:48:18.454Z,91.33
2018-06-03T04:50:47.662Z,90.63
2018-06-03T04:53:16.986Z,80.31
2018-06-03T04:55:46.211Z,65.36
2018-06-03T04:58:15.447Z,58.28
2018-06-03T05:00:44.660Z,56.95
2018-06-03T05:03:13.879Z,56.90
2018-06-03T05:05:43.103Z,53.35
2018-06-03T05:08:12.439Z,51.81
2018-06-03T05:10:41.663Z,54.51
2018-06-03T05:13:10.915Z,55.44
2018-06-03T05:15:40.194Z,55.26
2018-06-03T05:18:09.415Z,55.12
2018-06-03T05:20:38.616Z,50.86
2018-06-03T05:23:07.844Z,47.54
2018-06-03T05:25:37.119Z,41.29
2018-06-03T05:28:06.430Z,39.12
2018-06-03T05:30:35.727Z,36.83
2018-06-03T05:33:04.951Z,32.48
2018-06-03T05:35:34.162Z,39.73
2018-06-03T05:38:03.390Z,39.12
2018-06-03T05:40:32.623Z,40.10
2018-06-03T05:43:01.847Z,43.43
2018-06-03T05:45:31.051Z,35.85
2018-06-03T05:48:00.282Z,35.62
2018-06-03T05:50:29.535Z,33.59
2018-06-03T05:52:58.768Z,34.28
2018-06-03T05:55:27.970Z,34.16
2018-06-03T05:57:57.185Z,32.07
2018-06-03T06:00:26.387Z,28.49
2018-06-03T06:02:55.608Z,28.41
2018-06-03T06:05:24.809Z,33.26
2018-06-03T06:07:54.045Z,33.07
2018-06-03T06:10:23.263Z,32.16
2018-06-03T06:12:52.471Z,32.86
2018-06-03T06:15:21.705Z,31.23
2018-06-03T06:17:50.926Z,36.05
2018-06-03T06:20:20.116Z,33.39
2018-06-03T06:22:49.088Z,29.47
2018-06-03T06:25:18.303Z,31.65
2018-06-03T06:27:47.531Z,29.75
2018-06-03T06:30:16.755Z,30.59
2018-06-03T06:32:45.975Z,30.81
2018-06-03T06:35:15.175Z,33.48
2018-06-03T06:37:44.476Z,33.09
2018-06-03T06:40:13.771Z,34.87
2018-06-03T06:42:43.003Z,35.11
2018-06-03T06:45:12.207Z,34.95
2018-06-03T06:47:41.413Z,33.58
2018-06-03T06:50:10.723Z,33.54
2018-06-03T06:52:39.919Z,31.65
2018-06-03T06:55:09.199Z,31.59
2018-06-03T06:57:38.534Z,35.05
2018-06-03T07:00:07.859Z,34.18
2018-06-03T07:02:37.072Z,29.94
2018-06-03T07:05:06.328Z,34.38
2018-06-03T07:07:35.544Z,33.36
2018-06-03T07:10:04.766Z,33.34
2018-06-03T07:12:33.798Z,30.31
2018-06-03T07:15:03.012Z,29.44
2018-06-03T07:17:32.240Z,30.44
2018-06-03T07:20:01.540Z,28.61
2018-06-03T07:22:30.837Z,30.24
2018-06-03T07:25:00.054Z,31.76
2018-06-03T07:27:29.252Z,30.50
2018-06-03T07:29:58.482Z,28.84
2018-06-03T07:32:27.703Z,32.29
2018-06-03T07:34:56.940Z,30.74
2018-06-03T07:37:26.239Z,29.75
2018-06-03T07:39:55.446Z,30.91
2018-06-03T07:42:24.659Z,30.33
2018-06-03T07:44:53.867Z,28.51
2018-06-03T07:47:23.073Z,29.22
2018-06-03T07:49:52.300Z,31.49
2018-06-03T07:52:21.503Z,29.66
2018-06-03T07:54:50.714Z,28.39
2018-06-03T07:57:19.992Z,27.81
2018-06-03T07:59:49.191Z,26.36
2018-06-03T08:02:18.410Z,26.61
2018-06-03T08:04:47.676Z,30.10
2018-06-03T08:07:16.881Z,36.93
2018-06-03T08:09:46.190Z,35.71
2018-06-03T08:12:15.412Z,32.90
2018-06-03T08:14:44.641Z,35.44
2018-06-03T08:17:13.868Z,31.62
2018-06-03T08:19:43.080Z,34.74
2018-06-03T08:22:12.319Z,26.75
2018-06-03T08:24:41.828Z,34.88
2018-06-03T08:27:11.040Z,36.82
2018-06-03T08:29:40.307Z,31.43
2018-06-03T08:32:09.595Z,31.33
2018-06-03T08:34:38.913Z,30.26
2018-06-03T08:37:08.125Z,30.24
2018-06-03T08:39:37.357Z,30.85
2018-06-03T08:42:06.755Z,34.18
2018-06-03T08:44:35.974Z,34.08
2018-06-03T08:47:05.211Z,32.74
2018-06-03T08:49:34.529Z,31.29
2018-06-03T08:52:03.862Z,31.57
2018-06-03T08:54:33.143Z,25.11
2018-06-03T08:57:02.438Z,29.73
2018-06-03T08:59:31.763Z,34.68
2018-06-03T09:02:00.986Z,32.94
2018-06-03T09:04:30.264Z,34.33
2018-06-03T09:06:59.504Z,34.09
2018-06-03T09:09:28.718Z,32.65
2018-06-03T09:11:57.923Z,33.22
2018-06-03T09:14:27.140Z,29.14
2018-06-03T09:16:56.454Z,22.23
2018-06-03T09:19:25.671Z,22.09
2018-06-03T09:21:54.878Z,27.02
2018-06-03T09:24:24.184Z,28.44
2018-06-03T09:26:53.397Z,31.24
2018-06-03T09:29:22.615Z,37.97
2018-06-03T09:31:51.823Z,34.32
2018-06-03T09:34:21.099Z,33.44
2018-06-03T09:36:50.383Z,33.66
2018-06-03T09:39:19.623Z,30.69
2018-06-03T09:41:48.818Z,31.53
2018-06-03T09:44:18.138Z,33.75
2018-06-03T09:46:48.292Z,32.88
2018-06-03T09:49:17.531Z,30.69
2018-06-03T09:51:46.750Z,24.70
2018-06-03T09:54:15.963Z,28.32
2018-06-03T09:56:45.190Z,33.32
2018-06-03T09:59:14.442Z,33.77
2018-06-03T10:01:43.739Z,31.20
2018-06-03T10:04:13.035Z,36.73
2018-06-03T10:06:42.275Z,43.20
2018-06-03T10:09:11.507Z,39.23
2018-06-03T10:11:40.751Z,31.13
2018-06-03T10:14:09.954Z,29.54
2018-06-03T10:16:39.173Z,20.05
2018-06-03T10:19:08.456Z,26.93
2018-06-03T10:21:37.682Z,32.52
2018-06-03T10:24:06.962Z,33.55
2018-06-03T10:26:36.204Z,39.88
2018-06-03T10:29:05.210Z,43.09
2018-06-03T10:31:34.294Z,37.26
2018-06-03T10:34:03.539Z,34.70
2018-06-03T10:36:32.755Z,29.61
2018-06-03T10:39:02.079Z,29.58
2018-06-03T10:41:31.311Z,26.14
2018-06-03T10:44:00.514Z,29.19
2018-06-03T10:46:29.983Z,34.51
2018-06-03T10:48:59.179Z,32.42
2018-06-03T10:51:28.416Z,30.43
2018-06-03T10:53:57.689Z,31.25
2018-06-03T10:56:26.887Z,23.30
2018-06-03T10:58:56.131Z,27.96
2018-06-03T11:01:25.356Z,24.24
2018-06-03T11:03:54.608Z,26.22
2018-06-03T11:06:23.815Z,28.27
2018-06-03T11:08:53.032Z,30.62
2018-06-03T11:11:22.256Z,31.51
2018-06-03T11:13:51.298Z,22.24
2018-06-03T11:16:20.590Z,22.23
2018-06-03T11:18:49.922Z,19.75
2018-06-03T11:21:19.147Z,18.19
2018-06-03T11:23:48.378Z,27.52
2018-06-03T11:26:17.633Z,28.06
2018-06-03T11:28:46.859Z,32.15
2018-06-03T11:31:16.127Z,26.51
2018-06-03T11:33:46.450Z,25.27
2018-06-03T11:36:15.693Z,24.90
2018-06-03T11:38:44.959Z,26.59
2018-06-03T11:41:14.169Z,29.69
2018-06-03T11:43:43.475Z,23.78
2018-06-03T11:46:12.687Z,24.52
2018-06-03T11:48:41.907Z,27.04
2018-06-03T11:51:11.152Z,19.42
2018-06-03T11:53:40.464Z,16.60
2018-06-03T11:56:09.787Z,26.68
2018-06-03T11:58:54.704Z,28.87
2018-06-03T12:01:24.456Z,27.25
2018-06-03T12:03:54.141Z,25.69
2018-06-03T12:06:23.401Z,23.73
2018-06-03T12:08:52.606Z,27.18
2018-06-03T12:11:21.826Z,27.04
2018-06-03T12:13:51.041Z,24.86
2018-06-03T12:16:20.272Z,24.90
2018-06-03T12:18:49.483Z,23.20
2018-06-03T12:21:18.704Z,25.49
2018-06-03T12:23:47.989Z,21.39
2018-06-03T12:26:17.213Z,25.39
2018-06-03T12:28:46.463Z,21.42
2018-06-03T12:31:15.699Z,28.37
2018-06-03T12:33:44.906Z,32.25
2018-06-03T12:36:14.120Z,30.27
2018-06-03T12:38:43.386Z,26.81
2018-06-03T12:41:12.770Z,28.65
2018-06-03T12:43:41.735Z,26.00
2018-06-03T12:46:10.960Z,31.73
2018-06-03T12:48:40.215Z,29.94
2018-06-03T12:51:10.675Z,27.09
2018-06-03T12:53:39.960Z,25.10
2018-06-03T12:56:09.183Z,24.44
2018-06-03T12:58:38.397Z,24.83
2018-06-03T13:01:07.716Z,24.42
2018-06-03T13:03:36.927Z,26.25
2018-06-03T13:06:06.484Z,31.92
2018-06-03T13:08:35.775Z,30.03
2018-06-03T13:11:05.074Z,29.82
2018-06-03T13:13:34.298Z,28.78
2018-06-03T13:16:03.500Z,27.07
2018-06-03T13:18:32.720Z,27.59
2018-06-03T13:21:01.948Z,28.35
2018-06-03T13:23:31.170Z,33.83
2018-06-03T13:26:00.675Z,33.56
2018-06-03T13:28:29.909Z,32.91
2018-06-03T13:30:59.186Z,33.63
2018-06-03T13:33:28.437Z,31.10
2018-06-03T13:35:57.710Z,31.02
2018-06-03T13:38:27.031Z,31.21
2018-06-03T13:40:56.247Z,28.96
2018-06-03T13:43:25.471Z,26.84
2018-06-03T13:45:54.700Z,30.72
2018-06-03T13:48:23.912Z,27.71
2018-06-03T13:50:53.127Z,29.00
2018-06-03T13:53:22.361Z,29.67
2018-06-03T13:55:51.611Z,32.22
2018-06-03T13:58:20.843Z,34.15
2018-06-03T14:00:50.066Z,33.41
2018-06-03T14:03:19.343Z,32.92
2018-06-03T14:05:48.554Z,32.35
2018-06-03T14:08:17.853Z,33.72
2018-06-03T14:10:47.151Z,33.43
2018-06-03T14:13:16.371Z,36.14
2018-06-03T14:15:45.596Z,35.30
2018-06-03T14:18:14.810Z,33.20
2018-06-03T14:20:44.048Z,30.44
2018-06-03T14:23:13.275Z,30.87
2018-06-03T14:25:42.494Z,35.53
2018-06-03T14:28:11.716Z,34.57
2018-06-03T14:30:55.819Z,37.07
2018-06-03T14:33:25.047Z,36.82
2018-06-03T14:35:54.297Z,38.79
2018-06-03T14:38:23.532Z,37.00
2018-06-03T14:40:52.831Z,37.56
2018-06-03T14:43:22.115Z,37.60
2018-06-03T14:45:51.338Z,36.55
2018-06-03T14:48:20.546Z,36.74
2018-06-03T14:50:49.869Z,37.52
2018-06-03T14:53:19.063Z,37.88
2018-06-03T14:55:48.323Z,37.80
2018-06-03T14:58:17.552Z,38.45
2018-06-03T15:00:46.698Z,37.06
2018-06-03T15:03:16.002Z,38.24
2018-06-03T15:05:45.213Z,36.46
2018-06-03T15:08:14.493Z,36.77
2018-06-03T15:10:43.706Z,36.78
2018-06-03T15:13:12.915Z,37.14
2018-06-03T15:15:42.145Z,36.22
2018-06-03T15:18:11.359Z,35.49
2018-06-03T15:20:40.593Z,36.77
2018-06-03T15:23:09.911Z,34.70
2018-06-03T15:25:39.118Z,35.49
2018-06-03T15:28:08.339Z,37.42
2018-06-03T15:30:37.555Z,39.34
2018-06-03T15:33:06.783Z,39.79
2018-06-03T15:35:36.019Z,37.23
2018-06-03T15:38:05.251Z,36.46
2018-06-03T15:40:34.572Z,37.90
2018-06-03T15:43:03.807Z,37.11
2018-06-03T15:45:33.020Z,36.57
2018-06-03T15:48:02.241Z,38.13
2018-06-03T15:50:31.465Z,38.20
2018-06-03T15:53:00.842Z,35.77
2018-06-03T15:55:30.027Z,37.03
2018-06-03T15:57:59.412Z,37.66
2018-06-03T16:00:28.602Z,38.42
2018-06-03T16:02:57.946Z,37.85
2018-06-03T16:05:27.091Z,37.33
2018-06-03T16:07:56.388Z,36.06
2018-06-03T16:10:25.619Z,37.16
2018-06-03T16:12:54.904Z,34.11
2018-06-03T16:15:24.119Z,37.61
2018-06-03T16:17:53.335Z,36.36
2018-06-03T16:20:22.664Z,36.54
2018-06-03T16:22:51.863Z,35.83
2018-06-03T16:25:21.626Z,35.70
2018-06-03T16:27:50.824Z,37.15
2018-06-03T16:30:20.032Z,37.20
2018-06-03T16:32:49.242Z,37.95
2018-06-03T16:35:18.563Z,38.72
2018-06-03T16:37:47.844Z,39.73
2018-06-03T16:40:17.083Z,38.25
2018-06-03T16:42:46.302Z,38.86
2018-06-03T16:45:15.519Z,39.56
2018-06-03T16:47:44.730Z,39.44
2018-06-03T16:50:13.951Z,40.08
2018-06-03T16:52:43.176Z,38.40
2018-06-03T16:55:12.482Z,38.30
2018-06-03T16:57:41.765Z,39.26
2018-06-03T17:00:11.028Z,37.97
2018-06-03T17:02:40.284Z,38.76
2018-06-03T17:05:09.507Z,38.89
2018-06-03T17:07:38.719Z,39.51
2018-06-03T17:10:07.953Z,39.43
2018-06-03T17:12:37.671Z,40.14
2018-06-03T17:15:06.914Z,39.24
2018-06-03T17:17:36.198Z,39.20
2018-06-03T17:20:05.499Z,41.49
2018-06-03T17:22:34.744Z,40.72
2018-06-03T17:25:03.955Z,42.46
2018-06-03T17:27:33.197Z,40.94
2018-06-03T17:30:02.504Z,41.63
2018-06-03T17:32:31.704Z,41.48
2018-06-03T17:35:00.956Z,40.30
2018-06-03T17:37:30.205Z,42.19
2018-06-03T17:39:59.466Z,41.88
2018-06-03T17:42:31.041Z,41.89
2018-06-03T17:45:00.266Z,43.07
2018-06-03T17:47:29.474Z,43.06
2018-06-03T17:49:58.711Z,43.89
2018-06-03T17:52:27.936Z,44.80
2018-06-03T17:54:57.338Z,47.91
2018-06-03T17:57:26.434Z,43.70
2018-06-03T17:59:55.708Z,44.87
2018-06-03T18:02:24.909Z,50.29
2018-06-03T18:04:54.135Z,45.29
2018-06-03T18:07:23.355Z,47.73
2018-06-03T18:09:52.611Z,48.17
2018-06-03T18:12:21.819Z,48.44
2018-06-03T18:14:51.039Z,46.56
2018-06-03T18:17:20.255Z,49.40
2018-06-03T18:19:49.484Z,47.83
2018-06-03T18:22:18.713Z,49.87
2018-06-03T18:24:47.952Z,47.37
2018-06-03T18:27:17.356Z,47.95
2018-06-03T18:29:46.627Z,49.04
2018-06-03T18:32:15.792Z,49.63
2018-06-03T18:34:45.031Z,49.68
2018-06-03T18:37:14.240Z,48.90
2018-06-03T18:39:43.564Z,50.40
2018-06-03T18:42:12.803Z,50.45
2018-06-03T18:44:42.028Z,51.59
2018-06-03T18:47:11.246Z,51.67
2018-06-03T18:49:40.479Z,52.71
2018-06-03T18:52:09.760Z,52.79
2018-06-03T18:54:38.976Z,53.98
2018-06-03T18:57:08.252Z,54.76
2018-06-03T18:59:37.475Z,54.33
2018-06-03T19:02:06.820Z,55.42
2018-06-03T19:04:36.030Z,56.41
2018-06-03T19:07:05.263Z,58.30
2018-06-03T19:09:34.490Z,59.82
2018-06-03T19:12:03.692Z,60.58
2018-06-03T19:14:32.980Z,61.61
2018-06-03T19:17:02.300Z,62.90
2018-06-03T19:19:31.520Z,61.94
2018-06-03T19:22:01.103Z,64.11
2018-06-03T19:24:30.307Z,65.69
2018-06-03T19:26:59.639Z,66.38
2018-06-03T19:29:28.842Z,66.74
2018-06-03T19:31:58.058Z,68.57
2018-06-03T19:34:27.291Z,69.41
2018-06-03T19:36:56.517Z,70.84
2018-06-03T19:39:25.733Z,69.82
2018-06-03T19:41:55.023Z,71.23
2018-06-03T19:44:24.247Z,72.59
2018-06-03T19:46:53.529Z,71.40
2018-06-03T19:49:22.716Z,73.25
2018-06-03T19:51:51.987Z,72.12
2018-06-03T19:54:21.227Z,72.50
2018-06-03T19:56:50.475Z,73.28
2018-06-03T19:59:19.825Z,73.80
2018-06-03T20:01:49.038Z,75.46
2018-06-03T20:04:18.248Z,74.90
2018-06-03T20:06:47.460Z,77.80
2018-06-03T20:09:16.686Z,78.55
2018-06-03T20:11:46.151Z,76.95
2018-06-03T20:14:15.357Z,77.73
2018-06-03T20:16:44.589Z,77.26
2018-06-03T20:19:13.868Z,78.43
2018-06-03T20:21:43.118Z,77.96
2018-06-03T20:24:12.366Z,79.93
2018-06-03T20:26:41.596Z,77.03
2018-06-03T20:29:10.799Z,77.60
2018-06-03T20:31:40.088Z,74.51
2018-06-03T20:34:09.313Z,78.00
2018-06-03T20:36:38.536Z,77.52
2018-06-03T20:39:08.155Z,73.75
2018-06-03T20:41:37.324Z,74.26
2018-06-03T20:44:06.525Z,75.08
2018-06-03T20:46:35.767Z,76.23
2018-06-03T20:49:05.080Z,76.74
2018-06-03T20:51:34.308Z,79.67
2018-06-03T20:54:03.617Z,74.89
2018-06-03T20:56:32.964Z,74.74
2018-06-03T20:59:02.219Z,77.04
2018-06-03T21:01:31.424Z,78.40
2018-06-03T21:04:00.651Z,79.50
2018-06-03T21:06:29.894Z,80.90
2018-06-03T21:08:59.218Z,80.33
2018-06-03T21:11:28.551Z,80.74
2018-06-03T21:13:57.760Z,79.04
2018-06-03T21:16:26.980Z,81.06
2018-06-03T21:18:56.247Z,81.75
2018-06-03T21:21:25.541Z,80.76
2018-06-03T21:23:54.932Z,81.04
2018-06-03T21:26:24.155Z,83.93
2018-06-03T21:28:53.351Z,82.12
2018-06-03T21:31:22.572Z,83.74
2018-06-03T21:33:51.819Z,83.13
2018-06-03T21:36:21.047Z,84.15
2018-06-03T21:38:50.297Z,83.22
2018-06-03T21:41:19.558Z,84.77
2018-06-03T21:43:48.855Z,86.36
2018-06-03T21:46:18.078Z,84.96
2018-06-03T21:48:47.287Z,84.46
2018-06-03T21:51:16.508Z,85.30
2018-06-03T21:53:45.712Z,84.92
2018-06-03T21:56:14.923Z,86.29
2018-06-03T21:58:44.151Z,86.52
2018-06-03T22:01:13.379Z,86.97
2018-06-03T22:03:42.595Z,85.57
2018-06-03T22:06:11.817Z,87.46
2018-06-03T22:08:41.096Z,85.11
2018-06-03T22:11:10.324Z,86.11
2018-06-03T22:13:39.615Z,86.41
2018-06-03T22:16:08.844Z,86.01
2018-06-03T22:18:38.304Z,86.95
2018-06-03T22:21:07.518Z,87.77
2018-06-03T22:23:36.714Z,87.66
2018-06-03T22:26:06.039Z,86.41
2018-06-03T22:28:35.251Z,86.75
2018-06-03T22:31:04.772Z,85.75
2018-06-03T22:33:34.047Z,88.01
2018-06-03T22:36:03.298Z,86.01
2018-06-03T22:38:32.528Z,86.06
2018-06-03T22:41:01.772Z,86.05
2018-06-03T22:43:31.052Z,85.27
2018-06-03T22:46:00.281Z,87.70
2018-06-03T22:48:29.547Z,88.79
2018-06-03T22:50:58.766Z,88.63
2018-06-03T22:53:28.018Z,87.86
2018-06-03T22:55:57.230Z,87.75
2018-06-03T22:58:26.447Z,87.83
2018-06-03T23:00:55.668Z,88.87
2018-06-03T23:03:24.987Z,87.55
2018-06-03T23:05:54.262Z,87.94
2018-06-03T23:08:23.588Z,87.67
2018-06-03T23:10:52.850Z,89.03
2018-06-03T23:13:22.068Z,87.20
2018-06-03T23:15:51.263Z,89.44
2018-06-03T23:18:20.484Z,89.48
2018-06-03T23:20:49.686Z,89.61
2018-06-03T23:23:18.887Z,90.36
2018-06-03T23:25:48.095Z,89.95
2018-06-03T23:28:17.291Z,89.63
2018-06-03T23:30:46.523Z,90.10
2018-06-03T23:33:15.803Z,90.00
2018-06-03T23:35:45.019Z,90.91
2018-06-03T23:38:14.218Z,91.16
2018-06-03T23:40:43.502Z,90.81
2018-06-03T23:43:12.732Z,90.64
2018-06-03T23:45:41.922Z,90.49
2018-06-03T23:48:11.143Z,91.48
2018-06-03T23:50:40.468Z,90.11
2018-06-03T23:53:10.682Z,88.38
2018-06-03T23:55:39.897Z,87.08
2018-06-03T23:58:09.024Z,89.46
